createdAt,value
2022-11-02T00:01:33.988Z,60.30
2022-11-02T00:06:30.844Z,60.27
2022-11-02T00:11:27.751Z,60.36
2022-11-02T00:16:25.785Z,60.17
2022-11-02T00:21:25.003Z,60.06
2022-11-02T00:26:22.079Z,59.91
2022-11-02T00:31:18.945Z,59.96
2022-11-02T00:36:16.969Z,60.12
2022-11-02T00:41:14.851Z,59.93
2022-11-02T00:46:11.901Z,60.07
2022-11-02T00:51:08.899Z,60.01
2022-11-02T00:56:07.954Z,60.00
2022-11-02T01:01:05.874Z,59.92
2022-11-02T01:06:08.404Z,59.96
2022-11-02T01:11:14.262Z,59.95
2022-11-02T01:16:12.586Z,59.98
2022-11-02T01:21:09.980Z,59.88
2022-11-02T01:26:08.738Z,59.92
2022-11-02T01:31:07.436Z,59.69
2022-11-02T01:36:06.092Z,59.92
2022-11-02T01:41:02.886Z,59.77
2022-11-02T01:46:05.734Z,59.81
2022-11-02T01:51:07.875Z,59.85
2022-11-02T01:56:05.924Z,59.90
2022-11-02T02:01:03.480Z,59.92
2022-11-02T02:06:06.677Z,59.86
2022-11-02T02:11:03.902Z,59.91
2022-11-02T02:16:11.613Z,59.73
2022-11-02T02:21:25.884Z,59.87
2022-11-02T02:27:05.075Z,59.82
2022-11-02T02:32:08.669Z,60.01
2022-11-02T02:37:14.069Z,60.21
2022-11-02T02:42:18.706Z,60.19
2022-11-02T02:47:21.192Z,60.15
2022-11-02T02:52:20.452Z,60.06
2022-11-02T02:57:20.291Z,60.35
2022-11-02T03:02:24.157Z,60.32
2022-11-02T03:07:27.219Z,60.41
2022-11-02T03:12:31.768Z,60.41
2022-11-02T03:17:33.441Z,60.46
2022-11-02T03:22:39.148Z,60.74
2022-11-02T03:27:43.985Z,60.86
2022-11-02T03:32:50.225Z,61.13
2022-11-02T03:37:52.760Z,60.84
2022-11-02T03:42:52.493Z,60.90
2022-11-02T03:47:53.929Z,60.93
2022-11-02T03:52:58.759Z,60.79
2022-11-02T03:57:58.941Z,60.66
2022-11-02T04:03:03.476Z,60.62
2022-11-02T04:08:23.747Z,60.64
2022-11-02T04:13:42.821Z,60.47
2022-11-02T04:18:58.476Z,60.56
2022-11-02T04:24:14.762Z,60.33
2022-11-02T04:29:12.085Z,60.31
2022-11-02T04:34:10.071Z,60.42
2022-11-02T04:39:07.808Z,60.27
2022-11-02T04:44:05.580Z,60.06
2022-11-02T04:49:03.824Z,60.23
2022-11-02T04:54:03.710Z,60.32
2022-11-02T04:59:02.251Z,60.11
2022-11-02T05:04:02.544Z,60.07
2022-11-02T05:09:03.142Z,60.27
2022-11-02T05:14:01.297Z,59.85
2022-11-02T05:18:59.492Z,59.84
2022-11-02T05:24:00.219Z,59.64
2022-11-02T05:28:59.066Z,59.40
2022-11-02T05:33:56.555Z,59.35
2022-11-02T05:38:54.184Z,59.24
2022-11-02T05:43:51.553Z,59.09
2022-11-02T05:48:51.296Z,58.85
2022-11-02T05:53:48.277Z,58.49
2022-11-02T05:58:45.325Z,58.40
2022-11-02T06:03:42.344Z,58.23
2022-11-02T06:08:40.687Z,58.06
2022-11-02T06:13:38.694Z,57.65
2022-11-02T06:18:36.551Z,57.32
2022-11-02T06:23:33.992Z,57.13
2022-11-02T06:28:32.003Z,56.95
2022-11-02T06:33:29.448Z,56.62
2022-11-02T06:38:26.459Z,56.59
2022-11-02T06:43:23.957Z,56.31
2022-11-02T06:48:21.795Z,55.80
2022-11-02T06:53:18.725Z,55.38
2022-11-02T06:58:15.601Z,54.99
2022-11-02T07:03:12.654Z,54.56
2022-11-02T07:08:10.237Z,54.11
2022-11-02T07:13:08.191Z,54.08
2022-11-02T07:18:06.182Z,53.95
2022-11-02T07:23:04.848Z,53.85
2022-11-02T07:28:04.066Z,53.75
2022-11-02T07:33:01.603Z,53.48
2022-11-02T07:38:00.544Z,53.19
2022-11-02T07:42:58.494Z,52.93
2022-11-02T07:48:06.559Z,52.84
2022-11-02T07:53:07.114Z,52.52
2022-11-02T07:58:07.388Z,52.39
2022-11-02T08:03:06.338Z,51.90
2022-11-02T08:08:06.563Z,51.77
2022-11-02T08:13:04.415Z,51.92
2022-11-02T08:18:03.430Z,51.76
2022-11-02T08:23:00.904Z,52.12
2022-11-02T08:27:59.599Z,51.90
2022-11-02T08:33:03.389Z,51.72
2022-11-02T08:38:00.287Z,51.88
2022-11-02T08:42:58.484Z,51.49
2022-11-02T08:47:55.706Z,51.61
2022-11-02T08:52:53.080Z,51.45
2022-11-02T08:57:52.060Z,51.31
2022-11-02T09:03:00.975Z,50.77
2022-11-02T09:07:59.778Z,50.72
2022-11-02T09:12:56.614Z,50.47
2022-11-02T09:17:56.392Z,50.10
2022-11-02T09:22:53.993Z,49.92
2022-11-02T09:27:55.562Z,49.26
2022-11-02T09:32:56.566Z,49.14
2022-11-02T09:37:54.430Z,48.65
2022-11-02T09:43:04.738Z,48.28
2022-11-02T09:48:17.987Z,48.36
2022-11-02T09:53:22.147Z,48.50
2022-11-02T09:58:27.186Z,48.17
2022-11-02T10:03:35.612Z,47.95
2022-11-02T10:08:41.805Z,47.71
2022-11-02T10:13:48.219Z,47.54
2022-11-02T10:18:49.893Z,47.08
2022-11-02T10:23:51.977Z,46.64
2022-11-02T10:28:52.845Z,46.37
2022-11-02T10:33:52.835Z,46.24
2022-11-02T10:39:05.223Z,45.50
2022-11-02T10:44:16.203Z,45.47
2022-11-02T10:49:26.753Z,45.48
2022-11-02T10:54:33.256Z,44.33
2022-11-02T10:59:31.393Z,44.04
2022-11-02T11:04:29.732Z,43.58
2022-11-02T11:09:30.747Z,42.65
2022-11-02T11:19:50.787Z,41.70
2022-11-02T11:24:48.407Z,41.37
2022-11-02T11:30:03.266Z,40.42
2022-11-02T11:35:03.410Z,41.44
2022-11-02T11:40:03.838Z,40.47
2022-11-02T11:45:04.925Z,39.76
2022-11-02T11:50:15.533Z,38.89
2022-11-02T11:55:24.943Z,38.52
2022-11-02T12:00:30.045Z,37.26
2022-11-02T12:05:26.951Z,36.89
2022-11-02T12:10:36.839Z,36.88
2022-11-02T12:15:46.918Z,36.72
2022-11-02T12:21:04.437Z,35.95
2022-11-02T12:26:20.373Z,35.87
2022-11-02T12:31:33.225Z,35.50
2022-11-02T12:37:10.302Z,35.10
2022-11-02T12:42:18.501Z,34.42
2022-11-02T12:47:29.794Z,34.61
2022-11-02T12:52:39.429Z,33.96
2022-11-02T12:57:38.725Z,34.03
2022-11-02T13:02:47.832Z,33.82
2022-11-02T13:07:48.869Z,33.76
2022-11-02T13:12:49.801Z,33.85
2022-11-02T13:17:51.004Z,33.65
2022-11-02T13:22:54.146Z,34.20
2022-11-02T13:28:05.248Z,33.94
2022-11-02T13:33:11.375Z,34.42
2022-11-02T13:38:29.491Z,34.75
2022-11-02T13:44:02.842Z,34.84
2022-11-02T13:49:05.939Z,34.80
2022-11-02T13:54:13.254Z,35.45
2022-11-02T13:59:22.564Z,35.58
2022-11-02T14:04:21.909Z,35.69
2022-11-02T14:09:31.784Z,35.34
2022-11-02T14:14:37.602Z,35.64
2022-11-02T14:19:53.289Z,34.77
2022-11-02T14:24:55.500Z,34.44
2022-11-02T14:29:56.342Z,34.51
2022-11-02T14:35:08.625Z,34.62
2022-11-02T14:40:14.018Z,34.77
2022-11-02T14:45:24.650Z,35.22
2022-11-02T14:50:22.738Z,35.41
2022-11-02T14:55:23.823Z,35.75
2022-11-02T15:00:23.580Z,35.99
2022-11-02T15:05:26.419Z,36.18
2022-11-02T15:10:45.235Z,36.90
2022-11-02T15:15:44.062Z,36.85
2022-11-02T15:20:46.168Z,37.01
2022-11-02T15:25:49.126Z,37.37
2022-11-02T15:30:54.544Z,37.33
2022-11-02T15:35:54.518Z,37.67
2022-11-02T15:41:00.897Z,37.96
2022-11-02T15:46:09.521Z,37.82
2022-11-02T15:51:16.959Z,38.46
2022-11-02T15:56:32.198Z,38.36
2022-11-02T16:01:29.901Z,38.31
2022-11-02T16:06:30.115Z,38.71
2022-11-02T16:11:28.182Z,38.89
2022-11-02T16:16:25.458Z,39.23
2022-11-02T16:21:24.094Z,39.32
2022-11-02T16:26:24.548Z,39.71
2022-11-02T16:31:24.457Z,39.60
2022-11-02T16:36:23.992Z,39.43
2022-11-02T16:41:22.559Z,39.71
2022-11-02T16:46:30.794Z,39.05
2022-11-02T16:51:31.322Z,39.75
2022-11-02T16:56:31.677Z,39.64
2022-11-02T17:01:34.567Z,39.58
2022-11-02T17:06:43.174Z,39.85
2022-11-02T17:11:43.840Z,39.85
2022-11-02T17:16:59.336Z,39.89
2022-11-02T17:22:10.605Z,39.70
2022-11-02T17:27:24.327Z,39.63
2022-11-02T17:32:23.238Z,38.97
2022-11-02T17:37:25.964Z,38.59
2022-11-02T17:42:44.220Z,38.01
2022-11-02T17:47:41.328Z,37.96
2022-11-02T17:52:42.100Z,37.63
2022-11-02T17:57:50.974Z,37.39
2022-11-02T18:02:53.561Z,37.35
2022-11-02T18:07:52.834Z,37.10
2022-11-02T18:12:51.812Z,37.23
2022-11-02T18:17:48.962Z,36.91
2022-11-02T18:22:46.305Z,36.17
2022-11-02T18:27:43.883Z,35.83
2022-11-02T18:32:47.909Z,35.48
2022-11-02T18:37:48.306Z,35.99
2022-11-02T18:42:45.817Z,35.94
2022-11-02T18:47:46.466Z,35.98
2022-11-02T18:52:48.344Z,35.09
2022-11-02T18:57:45.617Z,35.50
2022-11-02T19:02:48.989Z,35.56
2022-11-02T19:08:04.780Z,35.74
2022-11-02T19:13:03.249Z,35.43
2022-11-02T19:18:01.446Z,35.71
2022-11-02T19:22:58.501Z,35.75
2022-11-02T19:27:59.221Z,36.04
2022-11-02T19:33:02.156Z,35.79
2022-11-02T19:37:59.234Z,36.12
2022-11-02T19:42:56.642Z,36.46
2022-11-02T19:47:55.924Z,36.56
2022-11-02T19:52:56.829Z,36.74
2022-11-02T19:57:58.913Z,36.74
2022-11-02T20:02:56.069Z,36.83
2022-11-02T20:07:53.170Z,36.72
2022-11-02T20:12:51.398Z,36.89
2022-11-02T20:18:13.733Z,36.87
2022-11-02T20:23:15.587Z,36.76
2022-11-02T20:28:13.673Z,37.16
2022-11-02T20:33:10.874Z,37.15
2022-11-02T20:38:08.406Z,37.47
2022-11-02T20:43:06.971Z,37.46
2022-11-02T20:48:05.773Z,37.58
2022-11-02T20:53:03.458Z,37.71
2022-11-02T20:58:00.823Z,37.71
2022-11-02T21:03:02.625Z,37.54
2022-11-02T21:08:00.628Z,37.47
2022-11-02T21:13:15.571Z,37.72
2022-11-02T21:18:14.184Z,37.84
2022-11-02T21:23:12.277Z,37.90
2022-11-02T21:28:09.236Z,38.01
2022-11-02T21:33:07.699Z,38.22
2022-11-02T21:38:07.834Z,38.40
2022-11-02T21:43:06.090Z,38.57
2022-11-02T21:48:03.576Z,38.79
2022-11-02T21:53:00.594Z,38.77
2022-11-02T21:57:57.534Z,39.11
2022-11-02T22:02:55.421Z,39.44
2022-11-02T22:08:08.021Z,39.61
2022-11-02T22:13:22.648Z,39.87
2022-11-02T22:18:20.477Z,40.03
2022-11-02T22:23:17.512Z,39.75
2022-11-02T22:28:14.535Z,40.68
2022-11-02T22:33:11.540Z,41.51
2022-11-02T22:38:27.548Z,42.09
2022-11-02T22:43:24.611Z,42.57
2022-11-02T22:48:21.417Z,43.33
2022-11-02T22:53:19.047Z,43.43
2022-11-02T22:58:16.386Z,43.64
2022-11-02T23:03:13.385Z,43.29
2022-11-02T23:08:10.484Z,43.21
2022-11-02T23:13:08.453Z,43.05
2022-11-02T23:18:05.754Z,43.00
2022-11-02T23:23:20.482Z,42.81
2022-11-02T23:28:35.921Z,42.79
2022-11-02T23:33:35.589Z,42.47
2022-11-02T23:38:47.005Z,42.43
2022-11-02T23:43:45.023Z,42.21
2022-11-02T23:48:42.532Z,41.64
2022-11-02T23:53:57.775Z,41.45
2022-11-02T23:59:05.961Z,41.30
